Time;durP1;ratioP1;P1;durP2;ratioP2;P2;SDS_P1;SDS_P2;PMS_P1;PMS_P2;Temp;Humidity;BMP_temperature;BMP_pressure;BME280_temperature;BME280_humidity;BME280_pressure;Samples;Min_cycle;Max_cycle;Signal;HPM_P1;HPM_P2
2024/04/23 00:00:43;;;;;;;;;;;;;;;1.70;100.00;96904.84;108418;1277;22664;-87
2024/04/23 00:03:30;;;;;;;;;;;;;;;1.68;100.00;96899.40;108348;1282;125058;-88
2024/04/23 00:05:56;;;;;;;;;;;;;;;1.66;100.00;96895.80;108496;1279;22544;-88
2024/04/23 00:08:22;;;;;;;;;;;;;;;1.63;100.00;96888.52;108406;1282;22903;-88
2024/04/23 00:10:49;;;;;;;;;;;;;;;1.62;100.00;96890.77;108270;1282;124950;-88
2024/04/23 00:13:15;;;;;;;;;;;;;;;1.61;100.00;96885.19;108475;1283;22511;-88
2024/04/23 00:15:41;;;;;;;;;;;;;;;1.58;100.00;96888.84;108373;1282;125000;-88
2024/04/23 00:18:07;;;;;;;;;;;;;;;1.60;100.00;96885.45;108454;1284;22545;-88
2024/04/23 00:20:34;;;;;;;;;;;;;;;1.63;100.00;96883.39;108471;1278;22514;-88
2024/04/23 00:23:01;;;;;;;;;;;;;;;1.65;100.00;96883.89;108281;1284;125809;-87
2024/04/23 00:25:27;;;;;;;;;;;;;;;1.66;100.00;96881.09;108455;1276;23176;-87
2024/04/23 00:27:53;;;;;;;;;;;;;;;1.66;100.00;96883.33;108362;1276;124974;-88
2024/04/23 00:30:20;;;;;;;;;;;;;;;1.67;100.00;96886.17;108473;1283;22516;-88
2024/04/23 00:32:46;;;;;;;;;;;;;;;1.66;100.00;96888.48;108366;1277;125077;-88
2024/04/23 00:35:12;;;;;;;;;;;;;;;1.59;100.00;96885.72;108485;1279;22524;-89
2024/04/23 00:37:38;;;;;;;;;;;;;;;1.58;100.00;96886.84;108404;1284;23270;-88
2024/04/23 00:40:05;;;;;;;;;;;;;;;1.59;100.00;96888.08;108346;1277;125118;-88
2024/04/23 00:42:32;;;;;;;;;;;;;;;1.58;100.00;96885.95;108448;1279;22567;-87
2024/04/23 00:44:58;;;;;;;;;;;;;;;1.57;100.00;96885.39;108387;1283;125071;-88
2024/04/23 00:47:24;;;;;;;;;;;;;;;1.57;100.00;96890.61;108395;1278;22520;-88
2024/04/23 00:49:51;;;;;;;;;;;;;;;1.56;100.00;96889.36;108471;1283;22452;-88
2024/04/23 00:52:17;;;;;;;;;;;;;;;1.54;100.00;96886.58;108353;1276;124943;-88
2024/04/23 00:54:43;;;;;;;;;;;;;;;1.51;100.00;96885.14;108517;1281;22554;-88
2024/04/23 00:57:09;;;;;;;;;;;;;;;1.47;100.00;96880.28;108404;1282;125091;-88
2024/04/23 00:59:36;;;;;;;;;;;;;;;1.45;100.00;96878.91;108436;1283;24294;-88
2024/04/23 01:02:02;;;;;;;;;;;;;;;1.43;100.00;96879.52;108445;1276;22513;-87
2024/04/23 01:04:28;;;;;;;;;;;;;;;1.38;100.00;96874.13;108288;1283;125047;-88
2024/04/23 01:06:55;;;;;;;;;;;;;;;1.38;100.00;96874.81;108408;1284;24255;-87
2024/04/23 01:09:21;;;;;;;;;;;;;;;1.38;100.00;96873.41;108432;1283;125165;-88
2024/04/23 01:11:47;;;;;;;;;;;;;;;1.35;100.00;96868.71;108416;1273;22651;-88
2024/04/23 01:14:14;;;;;;;;;;;;;;;1.32;100.00;96867.94;108484;1283;22532;-88
2024/04/23 01:16:40;;;;;;;;;;;;;;;1.32;100.00;96865.41;108404;1279;125546;-88
2024/04/23 01:19:09;;;;;;;;;;;;;;;1.33;100.00;96864.64;108460;1283;22529;-88
2024/04/23 01:21:37;;;;;;;;;;;;;;;1.33;100.00;96867.02;108347;1283;125204;-88
2024/04/23 01:24:11;;;;;;;;;;;;;;;1.33;100.00;96866.15;108438;1284;22524;-87
2024/04/23 01:26:37;;;;;;;;;;;;;;;1.32;100.00;96865.88;108420;1284;22521;-88
2024/04/23 01:29:03;;;;;;;;;;;;;;;1.31;100.00;96867.13;108305;1283;124912;-88
2024/04/23 01:31:29;;;;;;;;;;;;;;;1.32;100.00;96864.88;108403;1277;22515;-88
2024/04/23 01:33:56;;;;;;;;;;;;;;;1.33;100.00;96862.89;108356;1277;124906;-88
2024/04/23 01:36:22;;;;;;;;;;;;;;;1.34;100.00;96858.39;108457;1273;22514;-87
2024/04/23 01:38:48;;;;;;;;;;;;;;;1.34;100.00;96860.08;108359;1276;125148;-88
2024/04/23 01:41:15;;;;;;;;;;;;;;;1.35;100.00;96856.23;108419;1280;22747;-88
2024/04/23 01:43:42;;;;;;;;;;;;;;;1.35;100.00;96854.05;108536;1276;22548;-87
2024/04/23 01:46:08;;;;;;;;;;;;;;;1.35;100.00;96852.36;108345;1277;124991;-87
2024/04/23 01:48:34;;;;;;;;;;;;;;;1.33;100.00;96848.55;108529;1283;22518;-88
2024/04/23 01:51:00;;;;;;;;;;;;;;;1.32;100.00;96843.20;108322;1284;125119;-88
2024/04/23 01:53:26;;;;;;;;;;;;;;;1.31;100.00;96841.36;108474;1277;22577;-87
2024/04/23 01:55:53;;;;;;;;;;;;;;;1.30;100.00;96835.49;108454;1283;23664;-88
2024/04/23 01:58:19;;;;;;;;;;;;;;;1.27;100.00;96836.86;108267;1283;125000;-88
2024/04/23 02:00:45;;;;;;;;;;;;;;;1.27;100.00;96837.54;108503;1280;22649;-88
2024/04/23 02:03:12;;;;;;;;;;;;;;;1.28;100.00;96837.63;108402;1283;125420;-87
2024/04/23 02:05:39;;;;;;;;;;;;;;;1.29;100.00;96834.18;108450;1277;22587;-87
2024/04/23 02:08:05;;;;;;;;;;;;;;;1.30;100.00;96834.30;108390;1278;22553;-88
2024/04/23 02:10:31;;;;;;;;;;;;;;;1.29;100.00;96830.23;108460;1283;124989;-88
2024/04/23 02:12:57;;;;;;;;;;;;;;;1.30;100.00;96826.58;108406;1282;22523;-88
2024/04/23 02:15:24;;;;;;;;;;;;;;;1.30;100.00;96822.86;108379;1283;125104;-88
2024/04/23 02:17:51;;;;;;;;;;;;;;;1.26;100.00;96824.14;108397;1274;22540;-88
2024/04/23 02:20:17;;;;;;;;;;;;;;;1.22;100.00;96816.80;108477;1283;22538;-87
2024/04/23 02:22:43;;;;;;;;;;;;;;;1.18;100.00;96809.54;108353;1277;125421;-88
2024/04/23 02:25:10;;;;;;;;;;;;;;;1.08;100.00;96810.79;108471;1276;22502;-88
2024/04/23 02:27:36;;;;;;;;;;;;;;;1.03;100.00;96811.69;108405;1284;125358;-88
2024/04/23 02:30:02;;;;;;;;;;;;;;;1.03;100.00;96817.50;108486;1283;22660;-88
2024/04/23 02:32:29;;;;;;;;;;;;;;;1.00;100.00;96817.55;108477;1274;22802;-87
2024/04/23 02:34:55;;;;;;;;;;;;;;;0.95;100.00;96811.46;108397;1283;125675;-87
2024/04/23 02:37:21;;;;;;;;;;;;;;;0.90;100.00;96806.45;108476;1278;22599;-88
2024/04/23 02:39:48;;;;;;;;;;;;;;;0.82;100.00;96801.65;108368;1279;125023;-87
2024/04/23 02:42:14;;;;;;;;;;;;;;;0.77;100.00;96797.88;108460;1281;25224;-87
2024/04/23 02:44:40;;;;;;;;;;;;;;;0.72;100.00;96795.88;108445;1284;22553;-88
2024/04/23 02:47:07;;;;;;;;;;;;;;;0.65;100.00;96794.38;108496;1280;22482;-88
2024/04/23 02:49:33;;;;;;;;;;;;;;;0.63;100.00;96791.58;108464;1280;22546;-87
2024/04/23 02:52:00;;;;;;;;;;;;;;;0.60;100.00;96793.80;108404;1283;125095;-87
2024/04/23 02:54:27;;;;;;;;;;;;;;;0.58;100.00;96787.15;108390;1282;22521;-87
2024/04/23 02:56:53;;;;;;;;;;;;;;;0.58;100.00;96783.58;108414;1282;125120;-87
2024/04/23 02:59:20;;;;;;;;;;;;;;;0.58;100.00;96781.52;108543;1277;23505;-87
2024/04/23 03:01:46;;;;;;;;;;;;;;;0.57;100.00;96778.73;108479;1283;23853;-87
2024/04/23 03:04:13;;;;;;;;;;;;;;;0.58;100.00;96782.20;108367;1277;124927;-88
2024/04/23 03:06:39;;;;;;;;;;;;;;;0.58;100.00;96782.73;108413;1270;22534;-87
2024/04/23 03:09:05;;;;;;;;;;;;;;;0.58;100.00;96782.06;108330;1271;125065;-87
2024/04/23 03:11:31;;;;;;;;;;;;;;;0.58;100.00;96780.36;108378;1282;22594;-87
2024/04/23 03:13:58;;;;;;;;;;;;;;;0.58;100.00;96777.08;108524;1283;23990;-87
2024/04/23 03:16:24;;;;;;;;;;;;;;;0.59;100.00;96777.67;108341;1283;125009;-87
2024/04/23 03:18:50;;;;;;;;;;;;;;;0.62;100.00;96777.86;108459;1283;25713;-86
2024/04/23 03:21:16;;;;;;;;;;;;;;;0.61;100.00;96778.41;108321;1277;125094;-88
2024/04/23 03:23:43;;;;;;;;;;;;;;;0.61;100.00;96776.01;108390;1280;22542;-87
2024/04/23 03:26:09;;;;;;;;;;;;;;;0.66;100.00;96777.44;108460;1283;22523;-87
2024/04/23 03:28:35;;;;;;;;;;;;;;;0.69;100.00;96773.95;108404;1282;124932;-88
2024/04/23 03:31:01;;;;;;;;;;;;;;;0.71;100.00;96777.91;108466;1277;22584;-87
2024/04/23 03:33:28;;;;;;;;;;;;;;;0.70;100.00;96775.71;108378;1281;125292;-87
2024/04/23 03:35:54;;;;;;;;;;;;;;;0.70;100.00;96774.00;108484;1275;22543;-87
2024/04/23 03:38:20;;;;;;;;;;;;;;;0.68;100.00;96778.60;108511;1283;22537;-87
2024/04/23 03:40:46;;;;;;;;;;;;;;;0.71;100.00;96776.02;108348;1277;125064;-87
2024/04/23 03:43:13;;;;;;;;;;;;;;;0.74;100.00;96779.73;108396;1279;25402;-88
2024/04/23 03:45:39;;;;;;;;;;;;;;;0.76;100.00;96779.55;108358;1280;125150;-88
2024/04/23 03:48:06;;;;;;;;;;;;;;;0.78;100.00;96779.75;108464;1278;22586;-88
2024/04/23 03:50:32;;;;;;;;;;;;;;;0.79;100.00;96777.95;108542;1280;22624;-87
2024/04/23 03:52:58;;;;;;;;;;;;;;;0.83;100.00;96776.52;108466;1277;124937;-86
2024/04/23 03:55:25;;;;;;;;;;;;;;;0.87;100.00;96774.00;108599;1281;22475;-86
2024/04/23 03:57:51;;;;;;;;;;;;;;;0.92;100.00;96774.10;108442;1284;125003;-86
2024/04/23 04:00:17;;;;;;;;;;;;;;;0.95;100.00;96770.30;108517;1280;22513;-87
2024/04/23 04:08:14;;;;;;;;;;;;;;;1.04;100.00;96774.39;108580;1272;22593;-87
2024/04/23 04:10:40;;;;;;;;;;;;;;;1.08;100.00;96768.00;108387;1278;124985;-87
2024/04/23 04:13:07;;;;;;;;;;;;;;;1.10;100.00;96770.23;108487;1275;22628;-87
2024/04/23 04:15:33;;;;;;;;;;;;;;;1.12;100.00;96766.65;108489;1277;125663;-86
2024/04/23 04:17:59;;;;;;;;;;;;;;;1.15;100.00;96768.12;108594;1277;23816;-87
2024/04/23 04:20:26;;;;;;;;;;;;;;;1.18;100.00;96770.13;108552;1276;22485;-87
2024/04/23 04:22:52;;;;;;;;;;;;;;;1.19;100.00;96774.17;108398;1276;125346;-87
2024/04/23 04:25:18;;;;;;;;;;;;;;;1.19;100.00;96771.75;108535;1276;22500;-87
2024/04/23 04:27:45;;;;;;;;;;;;;;;1.21;100.00;96768.19;108409;1283;124933;-87
2024/04/23 04:30:11;;;;;;;;;;;;;;;1.26;100.00;96764.46;108520;1283;22565;-87
2024/04/23 04:32:38;;;;;;;;;;;;;;;1.28;100.00;96764.80;108554;1276;25843;-87
2024/04/23 04:35:04;;;;;;;;;;;;;;;1.31;100.00;96763.56;108488;1277;125115;-87
2024/04/23 04:37:34;;;;;;;;;;;;;;;1.35;100.00;96764.30;108539;1280;22536;-87
2024/04/23 04:40:00;;;;;;;;;;;;;;;1.38;100.00;96758.59;108437;1276;125018;-87
2024/04/23 04:42:27;;;;;;;;;;;;;;;1.40;100.00;96757.19;108536;1283;22620;-87
2024/04/23 04:44:53;;;;;;;;;;;;;;;1.44;100.00;96753.86;108359;1275;125076;-86
2024/04/23 04:47:19;;;;;;;;;;;;;;;1.46;100.00;96753.49;108480;1281;24716;-87
2024/04/23 04:49:45;;;;;;;;;;;;;;;1.48;100.00;96748.40;108551;1277;22533;-87
2024/04/23 04:52:12;;;;;;;;;;;;;;;1.48;100.00;96748.27;108425;1283;125261;-87
2024/04/23 04:54:38;;;;;;;;;;;;;;;1.50;100.00;96749.98;108445;1284;22571;-87
2024/04/23 04:57:04;;;;;;;;;;;;;;;1.52;100.00;96754.13;108454;1281;125170;-87
2024/04/23 04:59:31;;;;;;;;;;;;;;;1.50;100.00;96752.36;108491;1277;24159;-87
2024/04/23 05:01:57;;;;;;;;;;;;;;;1.49;100.00;96751.23;108495;1276;24718;-87
2024/04/23 05:04:23;;;;;;;;;;;;;;;1.53;100.00;96751.27;108412;1281;125017;-87
2024/04/23 05:06:49;;;;;;;;;;;;;;;1.57;100.00;96756.09;108529;1283;22502;-87
2024/04/23 05:09:16;;;;;;;;;;;;;;;1.58;100.00;96754.33;108423;1283;125177;-87
2024/04/23 05:11:43;;;;;;;;;;;;;;;1.60;100.00;96751.95;108532;1276;24782;-87
2024/04/23 05:14:09;;;;;;;;;;;;;;;1.64;100.00;96752.64;108489;1277;22584;-87
2024/04/23 05:16:35;;;;;;;;;;;;;;;1.66;100.00;96751.66;108345;1283;125175;-87
2024/04/23 05:19:02;;;;;;;;;;;;;;;1.64;100.00;96751.43;108403;1282;22569;-87
2024/04/23 05:21:28;;;;;;;;;;;;;;;1.67;100.00;96745.25;108339;1277;125214;-87
2024/04/23 05:23:54;;;;;;;;;;;;;;;1.71;100.00;96744.29;108487;1277;22513;-87
2024/04/23 05:26:21;;;;;;;;;;;;;;;1.73;100.00;96745.08;108521;1283;22510;-86
2024/04/23 05:28:47;;;;;;;;;;;;;;;1.78;100.00;96745.60;108446;1283;125026;-87
2024/04/23 05:33:59;;;;;;;;;;;;;;;1.83;100.00;96747.83;108406;1281;124280;-87
2024/04/23 05:36:26;;;;;;;;;;;;;;;1.84;100.00;96748.21;108456;1278;22541;-87
2024/04/23 05:38:52;;;;;;;;;;;;;;;1.85;100.00;96749.02;108421;1276;125205;-87
2024/04/23 05:41:19;;;;;;;;;;;;;;;1.90;100.00;96746.54;108449;1280;22503;-87
2024/04/23 05:43:45;;;;;;;;;;;;;;;1.97;100.00;96743.61;108474;1283;22562;-87
2024/04/23 05:46:12;;;;;;;;;;;;;;;2.03;100.00;96736.83;108417;1277;125529;-87
2024/04/23 05:48:57;;;;;;;;;;;;;;;2.09;100.00;96736.70;108524;1277;22550;-88
2024/04/23 05:51:42;;;;;;;;;;;;;;;2.16;100.00;96730.67;108474;1283;125071;-87
2024/04/23 05:54:27;;;;;;;;;;;;;;;2.25;100.00;96725.29;108572;1283;25259;-87
2024/04/23 05:56:53;;;;;;;;;;;;;;;2.33;100.00;96726.54;108464;1273;125272;-88
2024/04/23 05:59:20;;;;;;;;;;;;;;;2.40;100.00;96725.16;108568;1282;23825;-87
2024/04/23 06:01:46;;;;;;;;;;;;;;;2.45;100.00;96725.42;108467;1277;22554;-87
2024/04/23 06:04:12;;;;;;;;;;;;;;;2.47;100.00;96716.20;108470;1273;125027;-88
2024/04/23 06:06:39;;;;;;;;;;;;;;;2.51;100.00;96714.66;108412;1264;22614;-87
2024/04/23 06:09:05;;;;;;;;;;;;;;;2.55;100.00;96714.56;108370;1275;125409;-87
2024/04/23 06:11:31;;;;;;;;;;;;;;;2.58;100.00;96716.33;108541;1278;22460;-87
2024/04/23 06:14:07;;;;;;;;;;;;;;;2.60;100.00;96718.04;108391;1282;22508;-87
2024/04/23 06:16:33;;;;;;;;;;;;;;;2.63;100.00;96719.16;108448;1277;124970;-87
2024/04/23 06:19:00;;;;;;;;;;;;;;;2.69;100.00;96721.43;108413;1280;25311;-87
2024/04/23 06:21:26;;;;;;;;;;;;;;;2.75;100.00;96719.89;108427;1283;125262;-87
2024/04/23 06:23:52;;;;;;;;;;;;;;;2.82;100.00;96719.01;108530;1276;22539;-87
2024/04/23 06:26:19;;;;;;;;;;;;;;;2.85;100.00;96718.27;108500;1283;22539;-87
2024/04/23 06:28:45;;;;;;;;;;;;;;;2.88;100.00;96718.30;108326;1280;124995;-87
2024/04/23 06:31:11;;;;;;;;;;;;;;;2.90;100.00;96721.37;108484;1278;22548;-87
2024/04/23 06:33:38;;;;;;;;;;;;;;;2.94;100.00;96719.04;108439;1283;124906;-87
2024/04/23 06:36:04;;;;;;;;;;;;;;;3.00;100.00;96723.01;108480;1277;24931;-86
2024/04/23 06:38:30;;;;;;;;;;;;;;;3.00;100.00;96727.04;108498;1270;22542;-87
2024/04/23 06:40:57;;;;;;;;;;;;;;;3.05;100.00;96723.95;108443;1283;125018;-87
2024/04/23 06:43:23;;;;;;;;;;;;;;;3.12;100.00;96725.61;108535;1278;22535;-87
2024/04/23 06:45:50;;;;;;;;;;;;;;;3.15;100.00;96724.17;108305;1283;125235;-87
2024/04/23 06:48:17;;;;;;;;;;;;;;;3.19;100.00;96723.08;108453;1284;22576;-87
2024/04/23 06:50:44;;;;;;;;;;;;;;;3.26;100.00;96721.31;108344;1276;125390;-88
2024/04/23 06:53:13;;;;;;;;;;;;;;;3.36;100.00;96717.77;108544;1283;22493;-87
2024/04/23 06:55:39;;;;;;;;;;;;;;;3.46;100.00;96717.04;108448;1283;22530;-87
2024/04/23 06:58:06;;;;;;;;;;;;;;;3.54;100.00;96721.04;108350;1283;124937;-87
2024/04/23 07:00:32;;;;;;;;;;;;;;;3.61;100.00;96721.65;108520;1283;22551;-87
2024/04/23 07:02:58;;;;;;;;;;;;;;;3.69;100.00;96726.58;108391;1278;124370;-87
2024/04/23 07:05:24;;;;;;;;;;;;;;;3.73;100.00;96729.16;108553;1277;22599;-87
2024/04/23 07:07:52;;;;;;;;;;;;;;;3.79;100.00;96722.16;108509;1280;22552;-88
2024/04/23 07:10:18;;;;;;;;;;;;;;;3.82;100.00;96720.52;108444;1283;125009;-88
2024/04/23 07:12:45;;;;;;;;;;;;;;;3.90;100.00;96720.35;108515;1276;22503;-87
2024/04/23 07:15:11;;;;;;;;;;;;;;;3.98;100.00;96721.55;108332;1283;125105;-88
2024/04/23 07:17:37;;;;;;;;;;;;;;;4.02;100.00;96723.96;108472;1276;22538;-87
2024/04/23 07:20:04;;;;;;;;;;;;;;;4.06;100.00;96721.17;108523;1273;23093;-87
2024/04/23 07:22:30;;;;;;;;;;;;;;;4.11;100.00;96720.45;108430;1281;125269;-87
2024/04/23 07:24:57;;;;;;;;;;;;;;;4.13;100.00;96719.17;108393;1280;23011;-87
2024/04/23 07:27:23;;;;;;;;;;;;;;;4.13;100.00;96717.84;108363;1267;125190;-87
2024/04/23 07:29:49;;;;;;;;;;;;;;;4.19;100.00;96721.55;108503;1284;22597;-87
2024/04/23 07:32:17;;;;;;;;;;;;;;;4.27;100.00;96717.67;108532;1283;22534;-87
2024/04/23 07:34:43;;;;;;;;;;;;;;;4.35;100.00;96711.27;108432;1278;125115;-87
2024/04/23 07:37:12;;;;;;;;;;;;;;;4.38;100.00;96713.77;108529;1281;22526;-88
2024/04/23 07:39:39;;;;;;;;;;;;;;;4.43;100.00;96713.98;108357;1283;125446;-87
2024/04/23 07:42:05;;;;;;;;;;;;;;;4.50;100.00;96710.95;108459;1278;22507;-88
2024/04/23 07:44:31;;;;;;;;;;;;;;;4.54;100.00;96711.30;108564;1277;22505;-88
2024/04/23 07:46:58;;;;;;;;;;;;;;;4.56;100.00;96709.63;108343;1274;125214;-87
2024/04/23 07:49:24;;;;;;;;;;;;;;;4.62;100.00;96706.84;108531;1276;24977;-88
2024/04/23 07:51:50;;;;;;;;;;;;;;;4.64;100.00;96704.36;108445;1276;125090;-87
2024/04/23 07:54:16;;;;;;;;;;;;;;;4.63;99.58;96705.70;108475;1284;22535;-87
2024/04/23 07:56:43;;;;;;;;;;;;;;;4.57;100.00;96700.42;108434;1277;124897;-88
2024/04/23 07:59:09;;;;;;;;;;;;;;;4.59;100.00;96695.90;108396;1284;25384;-87
2024/04/23 08:01:35;;;;;;;;;;;;;;;4.63;99.83;96696.60;108465;1283;22524;-88
2024/04/23 08:04:02;;;;;;;;;;;;;;;4.65;100.00;96692.34;108361;1283;124774;-88
2024/04/23 08:06:28;;;;;;;;;;;;;;;4.72;100.00;96691.47;108488;1271;22542;-88
2024/04/23 08:08:54;;;;;;;;;;;;;;;4.76;100.00;96689.05;108306;1284;125208;-88
2024/04/23 08:11:20;;;;;;;;;;;;;;;4.81;100.00;96688.79;108499;1282;22568;-87
2024/04/23 08:13:47;;;;;;;;;;;;;;;4.89;100.00;96683.96;108515;1281;23036;-87
2024/04/23 08:16:13;;;;;;;;;;;;;;;4.89;99.89;96684.80;108372;1284;124929;-87
2024/04/23 08:18:40;;;;;;;;;;;;;;;4.93;99.87;96678.80;108473;1278;22518;-88
2024/04/23 08:21:08;;;;;;;;;;;;;;;4.96;99.89;96673.58;108417;1284;124929;-88
2024/04/23 08:23:35;;;;;;;;;;;;;;;5.01;100.00;96669.82;108536;1276;22688;-88
2024/04/23 08:26:09;;;;;;;;;;;;;;;5.09;100.00;96666.70;108408;1283;22553;-87
2024/04/23 08:28:35;;;;;;;;;;;;;;;5.16;100.00;96666.03;108382;1283;124962;-87
2024/04/23 08:31:02;;;;;;;;;;;;;;;5.22;100.00;96667.55;108448;1284;24237;-88
2024/04/23 08:33:29;;;;;;;;;;;;;;;5.20;99.25;96667.52;108362;1275;126112;-87
2024/04/23 08:35:55;;;;;;;;;;;;;;;5.19;99.85;96663.85;108502;1283;25225;-87
2024/04/23 08:38:21;;;;;;;;;;;;;;;5.23;99.32;96662.48;108479;1284;22545;-87
2024/04/23 08:40:48;;;;;;;;;;;;;;;5.27;99.82;96664.84;108442;1279;124976;-87
2024/04/23 08:43:21;;;;;;;;;;;;;;;5.33;99.82;96666.30;108433;1283;22537;-87
2024/04/23 08:45:47;;;;;;;;;;;;;;;5.40;99.92;96661.40;108405;1278;124823;-87
2024/04/23 08:48:14;;;;;;;;;;;;;;;5.43;98.21;96662.16;108389;1284;22657;-87
2024/04/23 08:50:40;;;;;;;;;;;;;;;5.44;99.73;96658.58;108450;1284;22554;-87
2024/04/23 08:53:07;;;;;;;;;;;;;;;5.48;99.32;96656.48;108387;1278;124705;-87
2024/04/23 08:55:35;;;;;;;;;;;;;;;5.53;99.99;96654.90;108505;1283;24192;-87
2024/04/23 08:58:01;;;;;;;;;;;;;;;5.54;99.64;96654.26;108452;1278;124845;-88
2024/04/23 09:00:28;;;;;;;;;;;;;;;5.57;98.99;96651.26;108472;1277;24378;-87
2024/04/23 09:02:54;;;;;;;;;;;;;;;5.56;97.38;96652.34;108396;1277;124891;-87
2024/04/23 09:05:20;;;;;;;;;;;;;;;5.51;96.70;96647.85;108550;1279;22537;-87
2024/04/23 09:07:47;;;;;;;;;;;;;;;5.48;97.60;96644.63;108394;1284;22510;-87
2024/04/23 09:10:13;;;;;;;;;;;;;;;5.50;97.08;96646.55;108486;1278;124877;-87
2024/04/23 09:12:46;;;;;;;;;;;;;;;5.52;98.37;96643.98;108524;1274;22531;-87
2024/04/23 09:15:12;;;;;;;;;;;;;;;5.57;98.47;96641.91;108426;1277;124940;-87
2024/04/23 09:17:39;;;;;;;;;;;;;;;5.59;96.88;96641.77;108473;1277;22543;-88
2024/04/23 09:20:05;;;;;;;;;;;;;;;5.57;96.47;96635.08;108469;1283;22496;-87
2024/04/23 09:22:32;;;;;;;;;;;;;;;5.55;94.96;96631.32;108382;1283;124737;-87
2024/04/23 09:25:02;;;;;;;;;;;;;;;5.57;97.53;96628.38;108479;1284;22538;-87
2024/04/23 09:27:30;;;;;;;;;;;;;;;5.64;96.47;96627.31;108420;1276;124710;-87
2024/04/23 09:29:57;;;;;;;;;;;;;;;5.66;97.26;96623.70;108468;1281;25391;-87
2024/04/23 09:32:23;;;;;;;;;;;;;;;5.75;98.17;96621.80;108523;1280;22540;-87
2024/04/23 09:34:54;;;;;;;;;;;;;;;5.78;95.31;96615.40;108376;1284;124812;-87
2024/04/23 09:37:20;;;;;;;;;;;;;;;5.77;94.67;96612.37;108476;1280;22542;-87
2024/04/23 09:39:46;;;;;;;;;;;;;;;5.78;95.25;96611.05;108367;1283;124980;-87
2024/04/23 09:42:25;;;;;;;;;;;;;;;5.86;97.30;96603.40;108506;1276;22558;-87
2024/04/23 09:44:52;;;;;;;;;;;;;;;5.95;94.92;96602.97;108436;1282;124986;-87
2024/04/23 09:47:19;;;;;;;;;;;;;;;5.99;96.60;96598.36;108427;1284;22534;-87
2024/04/23 09:49:57;;;;;;;;;;;;;;;6.07;97.50;96597.14;108488;1281;22508;-87
2024/04/23 09:52:31;;;;;;;;;;;;;;;6.12;95.18;96591.61;108415;1277;124761;-87
2024/04/23 09:54:58;;;;;;;;;;;;;;;6.16;96.98;96586.05;108514;1283;23370;-88
2024/04/23 09:57:24;;;;;;;;;;;;;;;6.20;95.37;96586.88;108455;1264;124940;-88
2024/04/23 09:59:50;;;;;;;;;;;;;;;6.30;97.07;96591.72;108483;1281;22547;-87
2024/04/23 10:02:19;;;;;;;;;;;;;;;6.43;95.29;96588.84;108490;1284;22515;-87
2024/04/23 10:04:45;;;;;;;;;;;;;;;6.53;94.94;96582.66;108361;1284;124752;-87
2024/04/23 10:07:12;;;;;;;;;;;;;;;6.60;94.86;96579.66;108445;1283;22470;-87
2024/04/23 10:09:38;;;;;;;;;;;;;;;6.66;94.40;96572.59;108373;1283;125306;-87
2024/04/23 10:12:05;;;;;;;;;;;;;;;6.78;95.27;96574.67;108428;1281;22553;-87
2024/04/23 10:14:34;;;;;;;;;;;;;;;6.95;94.55;96575.11;108463;1284;23843;-87
2024/04/23 10:17:00;;;;;;;;;;;;;;;7.06;94.17;96573.33;108366;1273;124606;-87
2024/04/23 10:19:28;;;;;;;;;;;;;;;7.11;91.90;96571.43;108485;1281;23384;-87
2024/04/23 10:21:54;;;;;;;;;;;;;;;7.16;92.30;96571.66;108180;1283;248908;-87
2024/04/23 10:24:21;;;;;;;;;;;;;;;7.22;92.71;96565.67;108510;1280;25387;-87
2024/04/23 10:26:48;;;;;;;;;;;;;;;7.33;94.79;96559.54;108431;1278;124900;-87
2024/04/23 10:29:15;;;;;;;;;;;;;;;7.45;91.59;96553.88;108533;1278;24187;-88
2024/04/23 10:31:42;;;;;;;;;;;;;;;7.38;87.72;96546.98;108512;1280;22513;-87
2024/04/23 10:34:08;;;;;;;;;;;;;;;7.38;91.75;96542.33;108384;1277;123855;-87
2024/04/23 10:36:38;;;;;;;;;;;;;;;7.49;91.70;96544.42;108434;1278;22516;-87
2024/04/23 10:39:11;;;;;;;;;;;;;;;7.57;92.44;96539.52;108395;1277;124966;-87
2024/04/23 10:41:37;;;;;;;;;;;;;;;7.60;89.22;96538.17;108528;1280;22559;-87
2024/04/23 10:44:04;;;;;;;;;;;;;;;7.61;90.09;96534.48;108442;1283;22499;-88
2024/04/23 10:46:31;;;;;;;;;;;;;;;7.69;92.49;96529.46;108387;1284;124840;-87
2024/04/23 10:48:59;;;;;;;;;;;;;;;7.81;91.34;96523.00;108467;1283;24086;-87
2024/04/23 10:51:25;;;;;;;;;;;;;;;7.86;91.34;96521.10;108435;1279;124914;-87
2024/04/23 10:53:52;;;;;;;;;;;;;;;7.86;89.42;96514.64;108535;1280;22583;-88
2024/04/23 10:56:24;;;;;;;;;;;;;;;7.79;89.72;96510.61;108460;1284;24243;-87
2024/04/23 10:59:03;;;;;;;;;;;;;;;7.78;88.67;96506.95;108373;1281;124973;-88
2024/04/23 11:01:30;;;;;;;;;;;;;;;7.72;87.37;96501.53;108471;1278;23819;-87
2024/04/23 11:03:57;;;;;;;;;;;;;;;7.69;88.23;96495.01;108396;1278;124763;-88
2024/04/23 11:06:33;;;;;;;;;;;;;;;7.73;89.18;96497.61;108457;1278;22500;-87
2024/04/23 11:09:08;;;;;;;;;;;;;;;7.82;90.03;96497.07;108420;1279;125459;-88
2024/04/23 11:11:35;;;;;;;;;;;;;;;7.98;91.76;96495.39;108534;1283;22508;-87
2024/04/23 11:14:02;;;;;;;;;;;;;;;8.13;90.21;96493.89;108492;1284;23881;-88
2024/04/23 11:16:28;;;;;;;;;;;;;;;8.26;90.06;96492.02;108324;1282;124988;-87
2024/04/23 11:18:57;;;;;;;;;;;;;;;8.26;86.43;96494.45;108486;1276;22525;-88
2024/04/23 11:21:27;;;;;;;;;;;;;;;8.24;86.85;96494.84;108366;1283;124963;-88
2024/04/23 11:23:53;;;;;;;;;;;;;;;8.23;84.39;96486.95;108477;1278;23292;-88
2024/04/23 11:26:21;;;;;;;;;;;;;;;8.21;85.46;96481.00;108467;1274;22553;-88
2024/04/23 11:28:47;;;;;;;;;;;;;;;8.25;86.55;96475.43;108403;1283;124764;-88
2024/04/23 11:31:14;;;;;;;;;;;;;;;8.24;86.29;96472.91;108440;1275;22523;-87
2024/04/23 11:33:40;;;;;;;;;;;;;;;8.27;88.00;96467.20;108386;1277;124926;-87
2024/04/23 11:36:07;;;;;;;;;;;;;;;8.41;89.02;96466.30;108429;1284;22515;-87
2024/04/23 11:38:43;;;;;;;;;;;;;;;8.51;87.29;96457.05;108453;1284;22529;-87
2024/04/23 11:41:14;;;;;;;;;;;;;;;8.64;86.63;96452.47;108429;1283;22533;-88
2024/04/23 11:43:44;;;;;;;;;;;;;;;8.73;83.63;96445.50;108430;1277;23219;-88
2024/04/23 11:46:14;;;;;;;;;;;;;;;8.79;84.66;96439.98;108434;1283;126341;-87
2024/04/23 11:48:41;;;;;;;;;;;;;;;8.81;84.25;96435.87;108481;1283;22538;-87
2024/04/23 11:51:07;;;;;;;;;;;;;;;8.85;83.24;96431.17;108314;1283;124908;-88
2024/04/23 11:53:33;;;;;;;;;;;;;;;8.88;83.17;96420.73;108461;1283;22512;-88
2024/04/23 11:55:59;;;;;;;;;;;;;;;8.84;83.29;96414.61;108477;1283;22546;-88
2024/04/23 11:58:26;;;;;;;;;;;;;;;8.80;81.54;96415.02;108374;1283;124842;-87
2024/04/23 12:00:52;;;;;;;;;;;;;;;8.78;81.57;96410.57;108498;1281;22493;-87
2024/04/23 12:03:19;;;;;;;;;;;;;;;8.86;82.29;96407.46;108458;1275;124970;-87
2024/04/23 12:05:46;;;;;;;;;;;;;;;8.99;84.19;96402.36;108506;1283;22511;-88
2024/04/23 12:08:12;;;;;;;;;;;;;;;9.15;82.13;96400.52;108388;1283;24440;-87
2024/04/23 12:10:38;;;;;;;;;;;;;;;9.24;80.45;96393.48;108400;1283;124787;-87
2024/04/23 12:13:04;;;;;;;;;;;;;;;9.32;82.25;96390.14;108402;1284;22944;-87
2024/04/23 12:15:31;;;;;;;;;;;;;;;9.43;83.83;96382.33;108454;1283;124981;-87
2024/04/23 12:17:57;;;;;;;;;;;;;;;9.53;82.98;96373.52;108519;1278;25050;-87
2024/04/23 12:20:24;;;;;;;;;;;;;;;9.61;81.88;96366.27;108442;1278;23663;-87
2024/04/23 12:22:51;;;;;;;;;;;;;;;9.65;81.24;96367.73;108380;1284;124998;-87
2024/04/23 12:25:17;;;;;;;;;;;;;;;9.67;79.71;96365.30;108443;1270;22542;-87
2024/04/23 12:27:48;;;;;;;;;;;;;;;9.61;77.99;96366.95;108359;1283;125219;-87
2024/04/23 12:30:15;;;;;;;;;;;;;;;9.55;78.68;96366.59;108436;1283;22513;-87
2024/04/23 12:32:42;;;;;;;;;;;;;;;9.51;79.72;96362.88;108457;1282;22658;-87
2024/04/23 12:35:09;;;;;;;;;;;;;;;9.56;80.51;96356.48;108506;1283;124794;-87
2024/04/23 12:37:35;;;;;;;;;;;;;;;9.72;79.90;96350.42;108435;1267;22538;-88
2024/04/23 12:40:05;;;;;;;;;;;;;;;9.77;78.89;96355.79;108457;1281;125176;-87
2024/04/23 12:42:31;;;;;;;;;;;;;;;9.77;78.35;96355.41;108514;1278;22660;-87